sensor_id;sensor_type;location;lat;lon;timestamp;P1;durP1;ratioP1;P2;durP2;ratioP2
57832;SDS011;43667;53.036;6.740;2022-08-03T00:00:42;7.35;;;2.40;;
57832;SDS011;43667;53.036;6.740;2022-08-03T00:03:08;8.25;;;2.75;;
57832;SDS011;43667;53.036;6.740;2022-08-03T00:05:35;9.38;;;2.28;;
57832;SDS011;43667;53.036;6.740;2022-08-03T00:08:00;9.93;;;2.72;;
57832;SDS011;43667;53.036;6.740;2022-08-03T00:10:26;5.47;;;1.98;;
57832;SDS011;43667;53.036;6.740;2022-08-03T00:12:52;7.28;;;2.53;;
57832;SDS011;43667;53.036;6.740;2022-08-03T00:15:18;10.00;;;2.67;;
57832;SDS011;43667;53.036;6.740;2022-08-03T00:17:44;7.63;;;2.53;;
57832;SDS011;43667;53.036;6.740;2022-08-03T00:20:10;6.78;;;2.05;;
57832;SDS011;43667;53.036;6.740;2022-08-03T00:22:36;7.07;;;2.60;;
57832;SDS011;43667;53.036;6.740;2022-08-03T00:25:02;7.35;;;2.22;;
57832;SDS011;43667;53.036;6.740;2022-08-03T00:27:28;8.88;;;2.40;;
57832;SDS011;43667;53.036;6.740;2022-08-03T00:29:53;10.07;;;2.47;;
57832;SDS011;43667;53.036;6.740;2022-08-03T00:32:19;13.95;;;2.80;;
57832;SDS011;43667;53.036;6.740;2022-08-03T00:34:45;11.32;;;2.50;;
57832;SDS011;43667;53.036;6.740;2022-08-03T00:37:10;4.90;;;2.20;;
57832;SDS011;43667;53.036;6.740;2022-08-03T00:39:36;6.50;;;2.33;;
57832;SDS011;43667;53.036;6.740;2022-08-03T00:42:02;9.27;;;2.30;;
57832;SDS011;43667;53.036;6.740;2022-08-03T00:44:28;6.68;;;2.03;;
57832;SDS011;43667;53.036;6.740;2022-08-03T00:46:54;8.07;;;2.13;;
57832;SDS011;43667;53.036;6.740;2022-08-03T00:49:19;7.15;;;2.08;;
57832;SDS011;43667;53.036;6.740;2022-08-03T00:51:45;7.80;;;1.90;;
57832;SDS011;43667;53.036;6.740;2022-08-03T00:54:11;9.55;;;1.95;;
57832;SDS011;43667;53.036;6.740;2022-08-03T00:56:38;8.07;;;1.77;;
57832;SDS011;43667;53.036;6.740;2022-08-03T00:59:05;6.10;;;2.17;;
57832;SDS011;43667;53.036;6.740;2022-08-03T01:01:31;6.72;;;1.70;;
57832;SDS011;43667;53.036;6.740;2022-08-03T01:03:56;6.53;;;1.50;;
57832;SDS011;43667;53.036;6.740;2022-08-03T01:06:36;4.93;;;1.52;;
57832;SDS011;43667;53.036;6.740;2022-08-03T01:11:49;7.78;;;1.80;;
57832;SDS011;43667;53.036;6.740;2022-08-03T01:17:55;9.25;;;2.28;;
57832;SDS011;43667;53.036;6.740;2022-08-03T01:20:28;5.03;;;1.67;;
57832;SDS011;43667;53.036;6.740;2022-08-03T01:28:42;7.78;;;1.90;;
57832;SDS011;43667;53.036;6.740;2022-08-03T01:31:36;8.93;;;2.47;;
57832;SDS011;43667;53.036;6.740;2022-08-03T01:34:06;10.95;;;2.17;;
57832;SDS011;43667;53.036;6.740;2022-08-03T01:36:35;6.40;;;1.73;;
57832;SDS011;43667;53.036;6.740;2022-08-03T01:39:04;8.32;;;1.77;;
57832;SDS011;43667;53.036;6.740;2022-08-03T01:41:43;6.60;;;2.35;;
57832;SDS011;43667;53.036;6.740;2022-08-03T01:44:13;7.53;;;1.77;;
57832;SDS011;43667;53.036;6.740;2022-08-03T01:46:39;6.85;;;1.75;;
57832;SDS011;43667;53.036;6.740;2022-08-03T01:49:07;4.38;;;1.40;;
57832;SDS011;43667;53.036;6.740;2022-08-03T01:51:37;5.53;;;2.28;;
57832;SDS011;43667;53.036;6.740;2022-08-03T01:54:05;8.65;;;3.13;;
57832;SDS011;43667;53.036;6.740;2022-08-03T01:56:33;9.13;;;2.13;;
57832;SDS011;43667;53.036;6.740;2022-08-03T01:59:00;7.65;;;1.80;;
57832;SDS011;43667;53.036;6.740;2022-08-03T02:01:27;6.22;;;1.73;;
57832;SDS011;43667;53.036;6.740;2022-08-03T02:03:55;5.18;;;1.50;;
57832;SDS011;43667;53.036;6.740;2022-08-03T02:06:23;8.75;;;1.67;;
57832;SDS011;43667;53.036;6.740;2022-08-03T02:08:50;5.82;;;1.63;;
57832;SDS011;43667;53.036;6.740;2022-08-03T02:11:19;11.77;;;2.17;;
57832;SDS011;43667;53.036;6.740;2022-08-03T02:13:45;4.20;;;1.40;;
57832;SDS011;43667;53.036;6.740;2022-08-03T02:16:12;7.15;;;1.77;;
57832;SDS011;43667;53.036;6.740;2022-08-03T02:18:39;6.18;;;1.27;;
57832;SDS011;43667;53.036;6.740;2022-08-03T02:21:06;5.30;;;1.33;;
57832;SDS011;43667;53.036;6.740;2022-08-03T02:23:34;7.07;;;2.00;;
57832;SDS011;43667;53.036;6.740;2022-08-03T02:26:01;8.23;;;2.30;;
57832;SDS011;43667;53.036;6.740;2022-08-03T02:28:34;5.25;;;1.60;;
57832;SDS011;43667;53.036;6.740;2022-08-03T02:31:06;6.18;;;1.50;;
57832;SDS011;43667;53.036;6.740;2022-08-03T02:33:40;5.93;;;1.75;;
57832;SDS011;43667;53.036;6.740;2022-08-03T02:36:07;4.80;;;2.08;;
57832;SDS011;43667;53.036;6.740;2022-08-03T02:38:37;6.55;;;1.80;;
57832;SDS011;43667;53.036;6.740;2022-08-03T02:41:07;8.68;;;2.25;;
57832;SDS011;43667;53.036;6.740;2022-08-03T02:43:40;8.52;;;2.60;;
57832;SDS011;43667;53.036;6.740;2022-08-03T02:46:07;9.40;;;2.22;;
57832;SDS011;43667;53.036;6.740;2022-08-03T02:48:35;9.65;;;2.25;;
57832;SDS011;43667;53.036;6.740;2022-08-03T02:51:02;4.82;;;2.08;;
57832;SDS011;43667;53.036;6.740;2022-08-03T02:53:28;8.90;;;2.20;;
57832;SDS011;43667;53.036;6.740;2022-08-03T02:55:55;6.50;;;2.00;;
57832;SDS011;43667;53.036;6.740;2022-08-03T02:58:23;8.45;;;2.42;;
57832;SDS011;43667;53.036;6.740;2022-08-03T03:00:50;9.85;;;2.95;;
57832;SDS011;43667;53.036;6.740;2022-08-03T03:03:16;6.28;;;2.25;;
57832;SDS011;43667;53.036;6.740;2022-08-03T03:05:42;6.97;;;2.35;;
57832;SDS011;43667;53.036;6.740;2022-08-03T03:08:11;9.50;;;2.60;;
57832;SDS011;43667;53.036;6.740;2022-08-03T03:10:39;7.38;;;2.55;;
57832;SDS011;43667;53.036;6.740;2022-08-03T03:13:05;10.05;;;2.72;;
57832;SDS011;43667;53.036;6.740;2022-08-03T03:15:32;10.65;;;2.63;;
57832;SDS011;43667;53.036;6.740;2022-08-03T03:18:01;9.18;;;2.75;;
57832;SDS011;43667;53.036;6.740;2022-08-03T03:20:27;9.82;;;2.90;;
57832;SDS011;43667;53.036;6.740;2022-08-03T03:22:53;7.50;;;2.80;;
57832;SDS011;43667;53.036;6.740;2022-08-03T03:25:20;7.75;;;2.38;;
57832;SDS011;43667;53.036;6.740;2022-08-03T03:27:46;5.00;;;2.40;;
57832;SDS011;43667;53.036;6.740;2022-08-03T03:30:12;8.85;;;2.88;;
57832;SDS011;43667;53.036;6.740;2022-08-03T03:32:38;7.75;;;2.10;;
57832;SDS011;43667;53.036;6.740;2022-08-03T03:35:05;9.57;;;2.92;;
57832;SDS011;43667;53.036;6.740;2022-08-03T03:37:31;9.88;;;2.38;;
57832;SDS011;43667;53.036;6.740;2022-08-03T03:39:57;10.30;;;2.33;;
57832;SDS011;43667;53.036;6.740;2022-08-03T03:42:24;10.70;;;2.88;;
57832;SDS011;43667;53.036;6.740;2022-08-03T03:44:50;8.18;;;2.53;;
57832;SDS011;43667;53.036;6.740;2022-08-03T03:47:15;7.85;;;2.70;;
57832;SDS011;43667;53.036;6.740;2022-08-03T03:49:42;8.68;;;2.63;;
57832;SDS011;43667;53.036;6.740;2022-08-03T03:52:08;13.90;;;3.38;;
57832;SDS011;43667;53.036;6.740;2022-08-03T03:54:38;9.60;;;3.05;;
57832;SDS011;43667;53.036;6.740;2022-08-03T03:57:08;9.85;;;3.08;;
57832;SDS011;43667;53.036;6.740;2022-08-03T03:59:38;6.47;;;2.63;;
57832;SDS011;43667;53.036;6.740;2022-08-03T04:02:08;5.40;;;2.80;;
57832;SDS011;43667;53.036;6.740;2022-08-03T04:04:35;13.65;;;4.20;;
57832;SDS011;43667;53.036;6.740;2022-08-03T04:07:20;12.25;;;3.35;;
57832;SDS011;43667;53.036;6.740;2022-08-03T04:10:14;13.30;;;3.35;;
57832;SDS011;43667;53.036;6.740;2022-08-03T04:13:02;10.00;;;3.50;;
57832;SDS011;43667;53.036;6.740;2022-08-03T04:15:31;10.73;;;3.25;;
57832;SDS011;43667;53.036;6.740;2022-08-03T04:17:58;8.35;;;3.60;;
57832;SDS011;43667;53.036;6.740;2022-08-03T04:20:28;11.25;;;3.78;;
57832;SDS011;43667;53.036;6.740;2022-08-03T04:22:56;9.38;;;3.72;;
57832;SDS011;43667;53.036;6.740;2022-08-03T04:25:27;8.55;;;3.53;;
57832;SDS011;43667;53.036;6.740;2022-08-03T04:27:56;8.95;;;3.20;;
57832;SDS011;43667;53.036;6.740;2022-08-03T04:30:27;13.38;;;3.53;;
57832;SDS011;43667;53.036;6.740;2022-08-03T04:32:55;7.90;;;3.30;;
57832;SDS011;43667;53.036;6.740;2022-08-03T04:35:25;12.80;;;3.40;;
57832;SDS011;43667;53.036;6.740;2022-08-03T04:37:55;9.13;;;3.20;;
57832;SDS011;43667;53.036;6.740;2022-08-03T04:40:27;9.63;;;3.88;;
57832;SDS011;43667;53.036;6.740;2022-08-03T04:42:56;6.88;;;3.45;;
57832;SDS011;43667;53.036;6.740;2022-08-03T04:45:23;12.27;;;3.10;;
57832;SDS011;43667;53.036;6.740;2022-08-03T04:47:49;9.07;;;3.13;;
57832;SDS011;43667;53.036;6.740;2022-08-03T04:50:16;8.00;;;3.40;;
57832;SDS011;43667;53.036;6.740;2022-08-03T04:52:42;9.85;;;4.10;;
57832;SDS011;43667;53.036;6.740;2022-08-03T04:55:08;9.65;;;2.75;;
57832;SDS011;43667;53.036;6.740;2022-08-03T04:57:34;7.90;;;3.42;;
57832;SDS011;43667;53.036;6.740;2022-08-03T04:59:59;10.73;;;3.50;;
57832;SDS011;43667;53.036;6.740;2022-08-03T05:02:25;10.27;;;3.63;;
57832;SDS011;43667;53.036;6.740;2022-08-03T05:04:51;11.00;;;3.45;;
57832;SDS011;43667;53.036;6.740;2022-08-03T05:07:17;15.73;;;3.55;;
57832;SDS011;43667;53.036;6.740;2022-08-03T05:09:43;8.10;;;3.08;;
57832;SDS011;43667;53.036;6.740;2022-08-03T05:12:09;11.43;;;2.80;;
57832;SDS011;43667;53.036;6.740;2022-08-03T05:14:35;8.85;;;2.38;;
57832;SDS011;43667;53.036;6.740;2022-08-03T05:17:03;9.18;;;3.17;;
57832;SDS011;43667;53.036;6.740;2022-08-03T05:19:32;13.00;;;3.58;;
57832;SDS011;43667;53.036;6.740;2022-08-03T05:21:58;11.27;;;3.00;;
57832;SDS011;43667;53.036;6.740;2022-08-03T05:24:24;8.48;;;2.95;;
57832;SDS011;43667;53.036;6.740;2022-08-03T05:26:50;12.98;;;3.50;;
57832;SDS011;43667;53.036;6.740;2022-08-03T05:29:15;10.77;;;3.80;;
57832;SDS011;43667;53.036;6.740;2022-08-03T05:31:41;9.25;;;2.85;;
57832;SDS011;43667;53.036;6.740;2022-08-03T05:34:06;10.73;;;3.03;;
57832;SDS011;43667;53.036;6.740;2022-08-03T05:36:32;7.63;;;2.45;;
57832;SDS011;43667;53.036;6.740;2022-08-03T05:38:57;11.48;;;2.92;;
57832;SDS011;43667;53.036;6.740;2022-08-03T05:41:23;9.63;;;3.70;;
57832;SDS011;43667;53.036;6.740;2022-08-03T05:43:52;7.65;;;2.75;;
57832;SDS011;43667;53.036;6.740;2022-08-03T05:46:19;7.20;;;2.45;;
57832;SDS011;43667;53.036;6.740;2022-08-03T05:48:45;8.52;;;2.42;;
57832;SDS011;43667;53.036;6.740;2022-08-03T05:51:10;9.35;;;2.80;;
57832;SDS011;43667;53.036;6.740;2022-08-03T05:53:37;12.52;;;2.97;;
57832;SDS011;43667;53.036;6.740;2022-08-03T05:56:04;12.02;;;2.95;;
57832;SDS011;43667;53.036;6.740;2022-08-03T05:58:30;11.02;;;2.70;;
57832;SDS011;43667;53.036;6.740;2022-08-03T06:00:56;9.32;;;2.67;;
57832;SDS011;43667;53.036;6.740;2022-08-03T06:03:21;7.25;;;2.83;;
57832;SDS011;43667;53.036;6.740;2022-08-03T06:05:47;11.25;;;2.88;;
57832;SDS011;43667;53.036;6.740;2022-08-03T06:08:13;8.13;;;2.80;;
57832;SDS011;43667;53.036;6.740;2022-08-03T06:10:38;9.48;;;2.85;;
57832;SDS011;43667;53.036;6.740;2022-08-03T06:13:04;8.25;;;2.58;;
57832;SDS011;43667;53.036;6.740;2022-08-03T06:15:29;9.10;;;2.83;;
57832;SDS011;43667;53.036;6.740;2022-08-03T06:17:57;8.75;;;2.55;;
57832;SDS011;43667;53.036;6.740;2022-08-03T06:20:23;8.30;;;2.30;;
57832;SDS011;43667;53.036;6.740;2022-08-03T06:22:49;10.18;;;2.70;;
57832;SDS011;43667;53.036;6.740;2022-08-03T06:25:14;12.93;;;2.80;;
57832;SDS011;43667;53.036;6.740;2022-08-03T06:27:44;14.00;;;2.72;;
57832;SDS011;43667;53.036;6.740;2022-08-03T06:30:10;9.40;;;3.00;;
57832;SDS011;43667;53.036;6.740;2022-08-03T06:32:37;9.93;;;2.78;;
57832;SDS011;43667;53.036;6.740;2022-08-03T06:35:06;15.07;;;2.67;;
57832;SDS011;43667;53.036;6.740;2022-08-03T06:37:46;6.20;;;2.55;;
57832;SDS011;43667;53.036;6.740;2022-08-03T06:40:15;12.80;;;2.53;;
57832;SDS011;43667;53.036;6.740;2022-08-03T06:42:43;10.45;;;2.63;;
57832;SDS011;43667;53.036;6.740;2022-08-03T06:45:09;8.68;;;2.25;;
57832;SDS011;43667;53.036;6.740;2022-08-03T06:47:36;12.65;;;2.97;;
57832;SDS011;43667;53.036;6.740;2022-08-03T06:50:03;9.85;;;2.75;;
57832;SDS011;43667;53.036;6.740;2022-08-03T06:52:30;10.07;;;2.65;;
57832;SDS011;43667;53.036;6.740;2022-08-03T06:54:56;10.02;;;3.15;;
57832;SDS011;43667;53.036;6.740;2022-08-03T06:57:22;16.08;;;3.10;;
57832;SDS011;43667;53.036;6.740;2022-08-03T06:59:47;9.00;;;2.70;;
57832;SDS011;43667;53.036;6.740;2022-08-03T07:02:13;11.82;;;2.58;;
57832;SDS011;43667;53.036;6.740;2022-08-03T07:04:39;11.25;;;2.40;;
57832;SDS011;43667;53.036;6.740;2022-08-03T07:07:04;13.07;;;2.42;;
57832;SDS011;43667;53.036;6.740;2022-08-03T07:09:30;15.70;;;3.33;;
57832;SDS011;43667;53.036;6.740;2022-08-03T07:11:56;10.32;;;2.40;;
57832;SDS011;43667;53.036;6.740;2022-08-03T07:14:22;13.30;;;3.03;;
57832;SDS011;43667;53.036;6.740;2022-08-03T07:16:48;11.98;;;3.03;;
57832;SDS011;43667;53.036;6.740;2022-08-03T07:19:14;10.52;;;2.65;;
57832;SDS011;43667;53.036;6.740;2022-08-03T07:21:39;10.93;;;2.58;;
57832;SDS011;43667;53.036;6.740;2022-08-03T07:24:05;9.57;;;2.63;;
57832;SDS011;43667;53.036;6.740;2022-08-03T07:26:31;14.48;;;2.45;;
57832;SDS011;43667;53.036;6.740;2022-08-03T07:28:56;11.32;;;2.63;;
57832;SDS011;43667;53.036;6.740;2022-08-03T07:31:22;12.15;;;2.78;;
57832;SDS011;43667;53.036;6.740;2022-08-03T07:33:47;10.35;;;2.50;;
57832;SDS011;43667;53.036;6.740;2022-08-03T07:36:13;12.50;;;2.60;;
57832;SDS011;43667;53.036;6.740;2022-08-03T07:38:38;12.70;;;3.30;;
57832;SDS011;43667;53.036;6.740;2022-08-03T07:41:04;12.43;;;2.78;;
57832;SDS011;43667;53.036;6.740;2022-08-03T07:43:29;13.68;;;3.60;;
57832;SDS011;43667;53.036;6.740;2022-08-03T07:45:55;10.23;;;2.50;;
57832;SDS011;43667;53.036;6.740;2022-08-03T07:48:21;11.13;;;3.33;;
57832;SDS011;43667;53.036;6.740;2022-08-03T07:50:46;9.88;;;2.85;;
57832;SDS011;43667;53.036;6.740;2022-08-03T07:53:12;12.82;;;2.80;;
57832;SDS011;43667;53.036;6.740;2022-08-03T07:55:38;10.23;;;2.50;;
57832;SDS011;43667;53.036;6.740;2022-08-03T07:58:05;8.82;;;2.38;;
57832;SDS011;43667;53.036;6.740;2022-08-03T08:00:33;15.40;;;2.60;;
57832;SDS011;43667;53.036;6.740;2022-08-03T08:03:00;10.55;;;2.30;;
57832;SDS011;43667;53.036;6.740;2022-08-03T08:05:26;11.02;;;2.83;;
57832;SDS011;43667;53.036;6.740;2022-08-03T08:07:52;11.93;;;2.20;;
57832;SDS011;43667;53.036;6.740;2022-08-03T08:10:18;11.48;;;2.42;;
57832;SDS011;43667;53.036;6.740;2022-08-03T08:12:44;9.68;;;2.30;;
57832;SDS011;43667;53.036;6.740;2022-08-03T08:15:09;7.40;;;1.98;;
57832;SDS011;43667;53.036;6.740;2022-08-03T08:20:07;7.82;;;1.80;;
57832;SDS011;43667;53.036;6.740;2022-08-03T08:22:34;11.68;;;2.20;;
57832;SDS011;43667;53.036;6.740;2022-08-03T08:25:00;7.85;;;1.90;;
57832;SDS011;43667;53.036;6.740;2022-08-03T08:27:25;10.43;;;2.15;;
57832;SDS011;43667;53.036;6.740;2022-08-03T08:29:51;11.15;;;3.13;;
57832;SDS011;43667;53.036;6.740;2022-08-03T08:32:17;11.38;;;2.30;;
57832;SDS011;43667;53.036;6.740;2022-08-03T08:34:42;12.60;;;2.25;;
57832;SDS011;43667;53.036;6.740;2022-08-03T08:37:08;12.63;;;2.45;;
57832;SDS011;43667;53.036;6.740;2022-08-03T08:39:33;12.85;;;2.92;;
57832;SDS011;43667;53.036;6.740;2022-08-03T08:41:59;10.52;;;2.05;;
57832;SDS011;43667;53.036;6.740;2022-08-03T08:44:25;11.02;;;2.03;;
57832;SDS011;43667;53.036;6.740;2022-08-03T08:46:50;14.27;;;2.75;;
57832;SDS011;43667;53.036;6.740;2022-08-03T08:49:18;8.88;;;2.13;;
57832;SDS011;43667;53.036;6.740;2022-08-03T08:51:48;9.60;;;2.08;;
57832;SDS011;43667;53.036;6.740;2022-08-03T08:54:17;13.25;;;2.33;;
57832;SDS011;43667;53.036;6.740;2022-08-03T08:56:46;13.45;;;2.40;;
57832;SDS011;43667;53.036;6.740;2022-08-03T08:59:15;9.70;;;2.20;;
57832;SDS011;43667;53.036;6.740;2022-08-03T09:01:41;13.02;;;2.17;;
57832;SDS011;43667;53.036;6.740;2022-08-03T09:04:07;10.50;;;2.55;;
57832;SDS011;43667;53.036;6.740;2022-08-03T09:06:33;11.00;;;2.53;;
57832;SDS011;43667;53.036;6.740;2022-08-03T09:08:59;12.70;;;2.47;;
57832;SDS011;43667;53.036;6.740;2022-08-03T09:11:25;10.13;;;2.25;;
57832;SDS011;43667;53.036;6.740;2022-08-03T09:13:50;8.52;;;2.30;;
57832;SDS011;43667;53.036;6.740;2022-08-03T09:16:17;14.43;;;2.40;;
57832;SDS011;43667;53.036;6.740;2022-08-03T09:18:45;9.45;;;2.47;;
57832;SDS011;43667;53.036;6.740;2022-08-03T09:21:24;13.75;;;2.92;;
57832;SDS011;43667;53.036;6.740;2022-08-03T09:23:55;13.80;;;2.55;;
57832;SDS011;43667;53.036;6.740;2022-08-03T09:26:22;7.60;;;2.42;;
57832;SDS011;43667;53.036;6.740;2022-08-03T09:29:00;13.35;;;2.50;;
57832;SDS011;43667;53.036;6.740;2022-08-03T09:31:31;9.60;;;2.53;;
57832;SDS011;43667;53.036;6.740;2022-08-03T09:34:02;9.50;;;2.05;;
57832;SDS011;43667;53.036;6.740;2022-08-03T09:36:48;10.93;;;2.20;;
57832;SDS011;43667;53.036;6.740;2022-08-03T09:39:15;9.10;;;2.40;;
57832;SDS011;43667;53.036;6.740;2022-08-03T09:41:46;12.88;;;2.58;;
57832;SDS011;43667;53.036;6.740;2022-08-03T09:44:35;10.02;;;2.60;;
57832;SDS011;43667;53.036;6.740;2022-08-03T09:47:02;10.90;;;2.08;;
57832;SDS011;43667;53.036;6.740;2022-08-03T09:49:29;10.45;;;2.22;;
57832;SDS011;43667;53.036;6.740;2022-08-03T09:51:55;8.20;;;2.42;;
57832;SDS011;43667;53.036;6.740;2022-08-03T09:54:25;12.15;;;2.97;;
57832;SDS011;43667;53.036;6.740;2022-08-03T09:56:54;8.48;;;2.17;;
57832;SDS011;43667;53.036;6.740;2022-08-03T09:59:25;9.38;;;2.20;;
57832;SDS011;43667;53.036;6.740;2022-08-03T10:01:55;13.43;;;3.05;;
57832;SDS011;43667;53.036;6.740;2022-08-03T10:04:22;7.68;;;2.35;;
57832;SDS011;43667;53.036;6.740;2022-08-03T10:07:05;8.30;;;2.75;;
57832;SDS011;43667;53.036;6.740;2022-08-03T10:09:33;8.35;;;2.20;;
57832;SDS011;43667;53.036;6.740;2022-08-03T10:12:06;10.27;;;1.90;;
57832;SDS011;43667;53.036;6.740;2022-08-03T10:14:36;8.23;;;1.85;;
57832;SDS011;43667;53.036;6.740;2022-08-03T10:17:06;9.32;;;1.98;;
57832;SDS011;43667;53.036;6.740;2022-08-03T10:19:33;9.90;;;2.97;;
57832;SDS011;43667;53.036;6.740;2022-08-03T10:22:03;12.45;;;2.35;;
57832;SDS011;43667;53.036;6.740;2022-08-03T10:24:33;10.18;;;2.42;;
57832;SDS011;43667;53.036;6.740;2022-08-03T10:27:01;9.77;;;2.15;;
57832;SDS011;43667;53.036;6.740;2022-08-03T10:29:28;9.85;;;2.65;;
57832;SDS011;43667;53.036;6.740;2022-08-03T10:32:03;10.32;;;2.42;;
57832;SDS011;43667;53.036;6.740;2022-08-03T10:34:34;14.60;;;2.58;;
57832;SDS011;43667;53.036;6.740;2022-08-03T10:37:07;12.00;;;2.50;;
57832;SDS011;43667;53.036;6.740;2022-08-03T10:39:35;14.68;;;2.83;;
57832;SDS011;43667;53.036;6.740;2022-08-03T10:42:01;8.68;;;2.50;;
57832;SDS011;43667;53.036;6.740;2022-08-03T10:44:35;14.27;;;2.10;;
57832;SDS011;43667;53.036;6.740;2022-08-03T10:47:03;7.72;;;2.13;;
57832;SDS011;43667;53.036;6.740;2022-08-03T10:49:29;11.43;;;2.28;;
57832;SDS011;43667;53.036;6.740;2022-08-03T10:51:55;12.35;;;2.92;;
57832;SDS011;43667;53.036;6.740;2022-08-03T11:00:19;10.90;;;2.30;;
57832;SDS011;43667;53.036;6.740;2022-08-03T11:05:31;10.20;;;2.28;;
57832;SDS011;43667;53.036;6.740;2022-08-03T11:08:20;13.70;;;2.83;;
57832;SDS011;43667;53.036;6.740;2022-08-03T11:10:45;16.40;;;2.65;;
57832;SDS011;43667;53.036;6.740;2022-08-03T11:13:14;10.93;;;2.70;;
57832;SDS011;43667;53.036;6.740;2022-08-03T11:15:42;15.55;;;2.53;;
57832;SDS011;43667;53.036;6.740;2022-08-03T11:18:10;12.20;;;1.95;;
57832;SDS011;43667;53.036;6.740;2022-08-03T11:23:12;12.60;;;2.85;;
57832;SDS011;43667;53.036;6.740;2022-08-03T11:28:34;13.80;;;2.72;;
57832;SDS011;43667;53.036;6.740;2022-08-03T11:34:05;13.77;;;2.30;;
57832;SDS011;43667;53.036;6.740;2022-08-03T11:39:45;13.77;;;2.72;;
57832;SDS011;43667;53.036;6.740;2022-08-03T11:44:46;12.52;;;2.45;;
57832;SDS011;43667;53.036;6.740;2022-08-03T11:47:16;12.32;;;2.45;;
57832;SDS011;43667;53.036;6.740;2022-08-03T11:49:47;9.10;;;2.53;;
57832;SDS011;43667;53.036;6.740;2022-08-03T11:52:15;12.82;;;2.38;;
57832;SDS011;43667;53.036;6.740;2022-08-03T11:54:41;12.88;;;2.72;;
57832;SDS011;43667;53.036;6.740;2022-08-03T11:57:07;14.55;;;3.22;;
57832;SDS011;43667;53.036;6.740;2022-08-03T11:59:34;12.20;;;2.80;;
57832;SDS011;43667;53.036;6.740;2022-08-03T12:02:11;14.15;;;2.40;;
57832;SDS011;43667;53.036;6.740;2022-08-03T12:04:53;14.52;;;2.88;;
57832;SDS011;43667;53.036;6.740;2022-08-03T12:07:22;15.88;;;2.90;;
57832;SDS011;43667;53.036;6.740;2022-08-03T12:10:05;18.40;;;2.90;;
57832;SDS011;43667;53.036;6.740;2022-08-03T12:12:38;17.23;;;2.95;;
57832;SDS011;43667;53.036;6.740;2022-08-03T12:15:05;12.70;;;2.47;;
57832;SDS011;43667;53.036;6.740;2022-08-03T12:17:35;15.32;;;2.85;;
57832;SDS011;43667;53.036;6.740;2022-08-03T12:20:03;12.55;;;2.88;;
57832;SDS011;43667;53.036;6.740;2022-08-03T12:22:34;12.25;;;2.50;;
57832;SDS011;43667;53.036;6.740;2022-08-03T12:25:03;14.50;;;2.65;;
57832;SDS011;43667;53.036;6.740;2022-08-03T12:27:29;16.35;;;2.92;;
57832;SDS011;43667;53.036;6.740;2022-08-03T12:29:55;11.55;;;3.28;;
57832;SDS011;43667;53.036;6.740;2022-08-03T12:32:22;12.43;;;2.83;;
57832;SDS011;43667;53.036;6.740;2022-08-03T12:34:49;13.65;;;3.08;;
57832;SDS011;43667;53.036;6.740;2022-08-03T12:37:19;15.10;;;2.78;;
57832;SDS011;43667;53.036;6.740;2022-08-03T12:39:48;10.55;;;2.13;;
57832;SDS011;43667;53.036;6.740;2022-08-03T12:42:18;10.13;;;2.50;;
57832;SDS011;43667;53.036;6.740;2022-08-03T12:44:44;14.75;;;2.90;;
57832;SDS011;43667;53.036;6.740;2022-08-03T12:47:10;8.88;;;1.90;;
57832;SDS011;43667;53.036;6.740;2022-08-03T12:49:46;11.23;;;2.25;;
57832;SDS011;43667;53.036;6.740;2022-08-03T12:52:17;12.02;;;2.20;;
57832;SDS011;43667;53.036;6.740;2022-08-03T12:54:56;9.10;;;2.10;;
57832;SDS011;43667;53.036;6.740;2022-08-03T12:57:23;9.73;;;1.90;;
57832;SDS011;43667;53.036;6.740;2022-08-03T12:59:49;9.60;;;2.17;;
57832;SDS011;43667;53.036;6.740;2022-08-03T13:04:49;10.60;;;1.80;;
57832;SDS011;43667;53.036;6.740;2022-08-03T13:07:15;7.85;;;1.92;;
57832;SDS011;43667;53.036;6.740;2022-08-03T13:09:52;7.70;;;1.60;;
57832;SDS011;43667;53.036;6.740;2022-08-03T13:12:20;8.07;;;1.83;;
57832;SDS011;43667;53.036;6.740;2022-08-03T13:14:47;9.80;;;2.15;;
57832;SDS011;43667;53.036;6.740;2022-08-03T13:17:15;10.40;;;2.10;;
57832;SDS011;43667;53.036;6.740;2022-08-03T13:19:41;10.20;;;2.58;;
57832;SDS011;43667;53.036;6.740;2022-08-03T13:22:15;5.22;;;1.42;;
57832;SDS011;43667;53.036;6.740;2022-08-03T13:24:49;8.40;;;1.75;;
57832;SDS011;43667;53.036;6.740;2022-08-03T13:27:17;6.97;;;1.30;;
57832;SDS011;43667;53.036;6.740;2022-08-03T13:29:43;10.20;;;1.80;;
57832;SDS011;43667;53.036;6.740;2022-08-03T13:32:08;6.03;;;1.45;;
57832;SDS011;43667;53.036;6.740;2022-08-03T13:34:34;7.60;;;1.60;;
57832;SDS011;43667;53.036;6.740;2022-08-03T13:37:01;7.30;;;1.38;;
57832;SDS011;43667;53.036;6.740;2022-08-03T13:39:27;5.80;;;1.25;;
57832;SDS011;43667;53.036;6.740;2022-08-03T13:41:52;6.57;;;1.50;;
57832;SDS011;43667;53.036;6.740;2022-08-03T13:44:18;8.40;;;1.33;;
57832;SDS011;43667;53.036;6.740;2022-08-03T13:46:47;9.23;;;1.40;;
57832;SDS011;43667;53.036;6.740;2022-08-03T13:49:13;7.40;;;1.40;;
57832;SDS011;43667;53.036;6.740;2022-08-03T13:51:39;8.38;;;1.70;;
57832;SDS011;43667;53.036;6.740;2022-08-03T13:54:05;8.55;;;1.50;;
57832;SDS011;43667;53.036;6.740;2022-08-03T13:56:31;10.63;;;1.83;;
57832;SDS011;43667;53.036;6.740;2022-08-03T13:58:57;11.15;;;2.00;;
57832;SDS011;43667;53.036;6.740;2022-08-03T14:01:23;7.13;;;1.58;;
57832;SDS011;43667;53.036;6.740;2022-08-03T14:03:50;8.48;;;1.80;;
57832;SDS011;43667;53.036;6.740;2022-08-03T14:06:18;11.23;;;1.52;;
57832;SDS011;43667;53.036;6.740;2022-08-03T14:08:47;6.72;;;1.38;;
57832;SDS011;43667;53.036;6.740;2022-08-03T14:11:13;8.45;;;1.70;;
57832;SDS011;43667;53.036;6.740;2022-08-03T14:13:39;7.97;;;1.48;;
57832;SDS011;43667;53.036;6.740;2022-08-03T14:16:05;8.65;;;2.03;;
57832;SDS011;43667;53.036;6.740;2022-08-03T14:18:30;9.18;;;1.77;;
57832;SDS011;43667;53.036;6.740;2022-08-03T14:20:57;11.93;;;1.67;;
57832;SDS011;43667;53.036;6.740;2022-08-03T14:23:23;7.78;;;1.60;;
57832;SDS011;43667;53.036;6.740;2022-08-03T14:25:48;7.93;;;1.80;;
57832;SDS011;43667;53.036;6.740;2022-08-03T14:28:14;9.65;;;1.83;;
57832;SDS011;43667;53.036;6.740;2022-08-03T14:30:40;10.70;;;1.70;;
57832;SDS011;43667;53.036;6.740;2022-08-03T14:33:05;11.93;;;1.75;;
57832;SDS011;43667;53.036;6.740;2022-08-03T14:35:31;9.52;;;2.08;;
57832;SDS011;43667;53.036;6.740;2022-08-03T14:37:56;10.30;;;2.15;;
57832;SDS011;43667;53.036;6.740;2022-08-03T14:40:22;13.02;;;1.77;;
57832;SDS011;43667;53.036;6.740;2022-08-03T14:42:47;6.65;;;1.75;;
57832;SDS011;43667;53.036;6.740;2022-08-03T14:45:13;9.00;;;1.58;;
57832;SDS011;43667;53.036;6.740;2022-08-03T14:47:39;8.88;;;1.75;;
57832;SDS011;43667;53.036;6.740;2022-08-03T14:50:05;11.75;;;2.08;;
57832;SDS011;43667;53.036;6.740;2022-08-03T14:52:31;9.68;;;2.08;;
57832;SDS011;43667;53.036;6.740;2022-08-03T14:54:57;9.35;;;2.22;;
57832;SDS011;43667;53.036;6.740;2022-08-03T14:57:23;10.05;;;1.70;;
57832;SDS011;43667;53.036;6.740;2022-08-03T14:59:49;8.60;;;1.83;;
57832;SDS011;43667;53.036;6.740;2022-08-03T15:02:15;8.13;;;1.30;;
57832;SDS011;43667;53.036;6.740;2022-08-03T15:04:40;11.73;;;1.80;;
57832;SDS011;43667;53.036;6.740;2022-08-03T15:07:06;8.15;;;1.52;;
57832;SDS011;43667;53.036;6.740;2022-08-03T15:09:32;11.57;;;2.33;;
57832;SDS011;43667;53.036;6.740;2022-08-03T15:11:58;8.43;;;1.95;;
57832;SDS011;43667;53.036;6.740;2022-08-03T15:14:23;10.48;;;2.00;;
57832;SDS011;43667;53.036;6.740;2022-08-03T15:16:49;7.13;;;1.77;;
57832;SDS011;43667;53.036;6.740;2022-08-03T15:19:15;11.07;;;2.08;;
57832;SDS011;43667;53.036;6.740;2022-08-03T15:21:41;7.50;;;1.80;;
57832;SDS011;43667;53.036;6.740;2022-08-03T15:24:07;9.25;;;2.28;;